sensor_id;sensor_type;location;lat;lon;timestamp;temperature;humidity
19908;DHT22;10116;53.112;7.356;2023-03-23T00:01:17;25.40;60.00
19908;DHT22;10116;53.112;7.356;2023-03-23T00:03:48;25.40;60.20
19908;DHT22;10116;53.112;7.356;2023-03-23T00:06:14;25.40;60.00
19908;DHT22;10116;53.112;7.356;2023-03-23T00:08:43;25.40;59.60
19908;DHT22;10116;53.112;7.356;2023-03-23T00:11:19;25.40;59.80
19908;DHT22;10116;53.112;7.356;2023-03-23T00:13:47;25.40;60.80
19908;DHT22;10116;53.112;7.356;2023-03-23T00:16:16;25.40;59.80
19908;DHT22;10116;53.112;7.356;2023-03-23T00:18:49;25.40;60.00
19908;DHT22;10116;53.112;7.356;2023-03-23T00:21:21;25.40;60.60
19908;DHT22;10116;53.112;7.356;2023-03-23T00:23:53;25.40;60.70
19908;DHT22;10116;53.112;7.356;2023-03-23T00:26:19;25.30;60.20
19908;DHT22;10116;53.112;7.356;2023-03-23T00:28:44;25.30;59.40
19908;DHT22;10116;53.112;7.356;2023-03-23T00:31:12;25.30;60.00
19908;DHT22;10116;53.112;7.356;2023-03-23T00:33:39;25.30;59.90
19908;DHT22;10116;53.112;7.356;2023-03-23T00:36:07;25.30;59.90
19908;DHT22;10116;53.112;7.356;2023-03-23T00:38:34;25.30;59.90
19908;DHT22;10116;53.112;7.356;2023-03-23T00:41:01;25.30;59.70
19908;DHT22;10116;53.112;7.356;2023-03-23T00:43:28;25.30;60.50
19908;DHT22;10116;53.112;7.356;2023-03-23T00:45:55;25.30;60.00
19908;DHT22;10116;53.112;7.356;2023-03-23T00:48:24;25.30;59.70
19908;DHT22;10116;53.112;7.356;2023-03-23T00:50:51;25.30;59.80
19908;DHT22;10116;53.112;7.356;2023-03-23T00:53:18;25.30;59.90
19908;DHT22;10116;53.112;7.356;2023-03-23T00:55:47;25.30;59.50
19908;DHT22;10116;53.112;7.356;2023-03-23T00:58:14;25.30;59.10
19908;DHT22;10116;53.112;7.356;2023-03-23T01:00:40;25.30;59.80
19908;DHT22;10116;53.112;7.356;2023-03-23T01:03:06;25.30;59.70
19908;DHT22;10116;53.112;7.356;2023-03-23T01:05:36;25.30;59.50
19908;DHT22;10116;53.112;7.356;2023-03-23T01:08:03;25.30;59.40
19908;DHT22;10116;53.112;7.356;2023-03-23T01:10:29;25.30;59.90
19908;DHT22;10116;53.112;7.356;2023-03-23T01:12:58;25.30;59.70
19908;DHT22;10116;53.112;7.356;2023-03-23T01:15:25;25.30;59.70
19908;DHT22;10116;53.112;7.356;2023-03-23T01:17:51;25.30;59.60
19908;DHT22;10116;53.112;7.356;2023-03-23T01:20:17;25.30;60.10
19908;DHT22;10116;53.112;7.356;2023-03-23T01:22:43;25.30;59.70
19908;DHT22;10116;53.112;7.356;2023-03-23T01:25:09;25.30;60.70
19908;DHT22;10116;53.112;7.356;2023-03-23T01:27:36;25.20;60.10
19908;DHT22;10116;53.112;7.356;2023-03-23T01:30:02;25.20;59.80
19908;DHT22;10116;53.112;7.356;2023-03-23T01:32:28;25.20;59.90
19908;DHT22;10116;53.112;7.356;2023-03-23T01:34:54;25.20;59.70
19908;DHT22;10116;53.112;7.356;2023-03-23T01:37:19;25.20;60.80
19908;DHT22;10116;53.112;7.356;2023-03-23T01:39:45;25.20;60.00
19908;DHT22;10116;53.112;7.356;2023-03-23T01:42:11;25.20;59.80
19908;DHT22;10116;53.112;7.356;2023-03-23T01:47:03;25.20;60.10
19908;DHT22;10116;53.112;7.356;2023-03-23T01:49:33;25.20;59.40
19908;DHT22;10116;53.112;7.356;2023-03-23T01:52:02;25.20;59.80
19908;DHT22;10116;53.112;7.356;2023-03-23T01:54:30;25.20;59.50
19908;DHT22;10116;53.112;7.356;2023-03-23T01:57:06;25.20;59.30
19908;DHT22;10116;53.112;7.356;2023-03-23T01:59:33;25.20;60.00
19908;DHT22;10116;53.112;7.356;2023-03-23T02:02:00;25.20;59.70
19908;DHT22;10116;53.112;7.356;2023-03-23T02:04:27;25.20;59.60
19908;DHT22;10116;53.112;7.356;2023-03-23T02:06:54;25.20;59.40
19908;DHT22;10116;53.112;7.356;2023-03-23T02:09:22;25.20;60.00
19908;DHT22;10116;53.112;7.356;2023-03-23T02:11:48;25.20;61.30
19908;DHT22;10116;53.112;7.356;2023-03-23T02:14:16;25.20;61.30
19908;DHT22;10116;53.112;7.356;2023-03-23T02:17:04;25.20;59.90
19908;DHT22;10116;53.112;7.356;2023-03-23T02:35:44;25.20;61.00
19908;DHT22;10116;53.112;7.356;2023-03-23T02:38:18;25.20;60.40
19908;DHT22;10116;53.112;7.356;2023-03-23T02:40:48;25.20;59.50
19908;DHT22;10116;53.112;7.356;2023-03-23T02:43:21;25.20;61.00
19908;DHT22;10116;53.112;7.356;2023-03-23T02:45:48;25.20;60.30
19908;DHT22;10116;53.112;7.356;2023-03-23T02:48:18;25.20;60.70
19908;DHT22;10116;53.112;7.356;2023-03-23T02:50:48;25.20;60.60
19908;DHT22;10116;53.112;7.356;2023-03-23T02:53:20;25.20;60.20
19908;DHT22;10116;53.112;7.356;2023-03-23T02:55:47;25.20;59.80
19908;DHT22;10116;53.112;7.356;2023-03-23T02:58:14;25.20;60.00
19908;DHT22;10116;53.112;7.356;2023-03-23T03:00:40;25.20;59.70
19908;DHT22;10116;53.112;7.356;2023-03-23T03:03:10;25.20;59.70
19908;DHT22;10116;53.112;7.356;2023-03-23T03:05:56;25.20;60.60
19908;DHT22;10116;53.112;7.356;2023-03-23T03:11:26;25.20;59.70
19908;DHT22;10116;53.112;7.356;2023-03-23T03:14:02;25.20;59.80
19908;DHT22;10116;53.112;7.356;2023-03-23T03:16:36;25.20;60.80
19908;DHT22;10116;53.112;7.356;2023-03-23T03:21:38;25.10;60.90
19908;DHT22;10116;53.112;7.356;2023-03-23T03:24:05;25.10;59.60
19908;DHT22;10116;53.112;7.356;2023-03-23T03:26:37;25.10;59.60
19908;DHT22;10116;53.112;7.356;2023-03-23T03:29:04;25.20;59.50
19908;DHT22;10116;53.112;7.356;2023-03-23T03:31:36;25.10;60.00
19908;DHT22;10116;53.112;7.356;2023-03-23T03:34:03;25.10;59.70
19908;DHT22;10116;53.112;7.356;2023-03-23T03:36:31;25.10;59.40
19908;DHT22;10116;53.112;7.356;2023-03-23T03:39:05;25.10;60.10
19908;DHT22;10116;53.112;7.356;2023-03-23T03:41:33;25.10;60.00
19908;DHT22;10116;53.112;7.356;2023-03-23T03:43:59;25.10;60.60
19908;DHT22;10116;53.112;7.356;2023-03-23T03:46:25;25.10;59.70
19908;DHT22;10116;53.112;7.356;2023-03-23T03:48:55;25.10;61.20
19908;DHT22;10116;53.112;7.356;2023-03-23T03:51:22;25.10;60.00
19908;DHT22;10116;53.112;7.356;2023-03-23T03:53:48;25.10;60.70
19908;DHT22;10116;53.112;7.356;2023-03-23T03:56:13;25.10;60.10
19908;DHT22;10116;53.112;7.356;2023-03-23T03:58:39;25.10;61.10
19908;DHT22;10116;53.112;7.356;2023-03-23T04:01:08;25.20;60.50
19908;DHT22;10116;53.112;7.356;2023-03-23T04:03:36;25.20;76.90
19908;DHT22;10116;53.112;7.356;2023-03-23T04:06:02;25.10;60.80
19908;DHT22;10116;53.112;7.356;2023-03-23T04:08:28;25.20;60.10
19908;DHT22;10116;53.112;7.356;2023-03-23T04:10:54;25.20;60.90
19908;DHT22;10116;53.112;7.356;2023-03-23T04:13:21;25.20;60.60
19908;DHT22;10116;53.112;7.356;2023-03-23T04:15:47;25.20;60.50
19908;DHT22;10116;53.112;7.356;2023-03-23T04:18:14;25.20;60.70
19908;DHT22;10116;53.112;7.356;2023-03-23T04:20:45;25.20;61.10
19908;DHT22;10116;53.112;7.356;2023-03-23T04:23:13;25.20;61.00
19908;DHT22;10116;53.112;7.356;2023-03-23T04:25:39;25.20;60.90
19908;DHT22;10116;53.112;7.356;2023-03-23T04:28:07;25.20;61.10
19908;DHT22;10116;53.112;7.356;2023-03-23T04:30:36;25.20;61.20
19908;DHT22;10116;53.112;7.356;2023-03-23T04:33:02;25.20;62.30
19908;DHT22;10116;53.112;7.356;2023-03-23T04:35:28;25.30;64.50
19908;DHT22;10116;53.112;7.356;2023-03-23T04:37:55;25.40;64.10
19908;DHT22;10116;53.112;7.356;2023-03-23T04:40:21;25.40;64.40
19908;DHT22;10116;53.112;7.356;2023-03-23T04:42:46;25.50;65.50
19908;DHT22;10116;53.112;7.356;2023-03-23T04:45:18;25.50;66.90
19908;DHT22;10116;53.112;7.356;2023-03-23T04:47:50;25.50;66.50
19908;DHT22;10116;53.112;7.356;2023-03-23T04:50:29;25.60;66.70
19908;DHT22;10116;53.112;7.356;2023-03-23T04:52:58;25.60;66.60
19908;DHT22;10116;53.112;7.356;2023-03-23T04:55:25;25.60;66.30
19908;DHT22;10116;53.112;7.356;2023-03-23T04:57:51;25.60;66.30
19908;DHT22;10116;53.112;7.356;2023-03-23T05:00:18;25.60;65.70
19908;DHT22;10116;53.112;7.356;2023-03-23T05:02:46;25.50;66.70
19908;DHT22;10116;53.112;7.356;2023-03-23T05:05:19;25.50;66.70
19908;DHT22;10116;53.112;7.356;2023-03-23T05:07:45;25.50;64.40
19908;DHT22;10116;53.112;7.356;2023-03-23T05:10:13;25.40;65.00
19908;DHT22;10116;53.112;7.356;2023-03-23T05:12:39;25.40;64.80
19908;DHT22;10116;53.112;7.356;2023-03-23T05:15:05;25.40;63.00
19908;DHT22;10116;53.112;7.356;2023-03-23T05:17:32;25.40;62.90
19908;DHT22;10116;53.112;7.356;2023-03-23T05:19:59;25.30;62.70
19908;DHT22;10116;53.112;7.356;2023-03-23T05:22:28;25.30;62.80
19908;DHT22;10116;53.112;7.356;2023-03-23T05:24:54;25.30;64.00
19908;DHT22;10116;53.112;7.356;2023-03-23T05:27:19;25.20;62.20
19908;DHT22;10116;53.112;7.356;2023-03-23T05:29:46;25.20;62.20
19908;DHT22;10116;53.112;7.356;2023-03-23T05:32:14;25.20;61.50
19908;DHT22;10116;53.112;7.356;2023-03-23T05:34:40;25.20;62.30
19908;DHT22;10116;53.112;7.356;2023-03-23T05:37:07;25.20;62.60
19908;DHT22;10116;53.112;7.356;2023-03-23T05:39:35;25.30;62.70
19908;DHT22;10116;53.112;7.356;2023-03-23T05:42:02;25.30;63.70
19908;DHT22;10116;53.112;7.356;2023-03-23T05:44:28;25.30;65.00
19908;DHT22;10116;53.112;7.356;2023-03-23T05:46:54;25.30;63.90
19908;DHT22;10116;53.112;7.356;2023-03-23T05:49:20;25.40;66.10
19908;DHT22;10116;53.112;7.356;2023-03-23T05:51:46;25.40;64.80
19908;DHT22;10116;53.112;7.356;2023-03-23T05:54:12;25.40;65.10
19908;DHT22;10116;53.112;7.356;2023-03-23T05:56:38;25.40;64.90
19908;DHT22;10116;53.112;7.356;2023-03-23T05:59:04;25.30;63.80
19908;DHT22;10116;53.112;7.356;2023-03-23T06:01:29;25.30;63.50
19908;DHT22;10116;53.112;7.356;2023-03-23T06:03:55;25.30;64.40
19908;DHT22;10116;53.112;7.356;2023-03-23T06:06:27;25.20;63.10
19908;DHT22;10116;53.112;7.356;2023-03-23T06:08:55;25.20;62.60
19908;DHT22;10116;53.112;7.356;2023-03-23T06:11:21;25.20;63.10
19908;DHT22;10116;53.112;7.356;2023-03-23T06:13:46;25.20;64.10
19908;DHT22;10116;53.112;7.356;2023-03-23T06:16:13;25.20;62.40
19908;DHT22;10116;53.112;7.356;2023-03-23T06:18:39;25.20;62.70
19908;DHT22;10116;53.112;7.356;2023-03-23T06:21:06;25.20;62.40
19908;DHT22;10116;53.112;7.356;2023-03-23T06:23:34;25.20;63.50
19908;DHT22;10116;53.112;7.356;2023-03-23T06:26:03;25.20;62.90
19908;DHT22;10116;53.112;7.356;2023-03-23T06:28:31;25.20;63.10
19908;DHT22;10116;53.112;7.356;2023-03-23T06:31:03;25.20;64.20
19908;DHT22;10116;53.112;7.356;2023-03-23T06:33:32;25.30;64.80
19908;DHT22;10116;53.112;7.356;2023-03-23T06:35:57;25.30;64.90
19908;DHT22;10116;53.112;7.356;2023-03-23T06:38:24;25.30;64.30
19908;DHT22;10116;53.112;7.356;2023-03-23T06:40:52;25.30;64.70
19908;DHT22;10116;53.112;7.356;2023-03-23T06:43:18;25.30;65.10
19908;DHT22;10116;53.112;7.356;2023-03-23T06:45:44;25.30;64.20
19908;DHT22;10116;53.112;7.356;2023-03-23T06:48:09;25.20;63.60
19908;DHT22;10116;53.112;7.356;2023-03-23T06:50:35;25.20;63.50
19908;DHT22;10116;53.112;7.356;2023-03-23T06:53:01;25.20;63.00
19908;DHT22;10116;53.112;7.356;2023-03-23T06:55:26;25.20;63.90
19908;DHT22;10116;53.112;7.356;2023-03-23T06:57:52;25.10;62.70
19908;DHT22;10116;53.112;7.356;2023-03-23T07:00:18;25.10;61.60
19908;DHT22;10116;53.112;7.356;2023-03-23T07:02:43;25.10;61.60
19908;DHT22;10116;53.112;7.356;2023-03-23T07:05:10;25.00;61.90
19908;DHT22;10116;53.112;7.356;2023-03-23T07:07:37;25.00;60.30
19908;DHT22;10116;53.112;7.356;2023-03-23T07:10:04;25.00;60.20
19908;DHT22;10116;53.112;7.356;2023-03-23T07:12:30;25.00;59.80
19908;DHT22;10116;53.112;7.356;2023-03-23T07:14:56;25.00;60.70
19908;DHT22;10116;53.112;7.356;2023-03-23T07:17:22;25.00;60.30
19908;DHT22;10116;53.112;7.356;2023-03-23T07:19:48;25.00;60.30
19908;DHT22;10116;53.112;7.356;2023-03-23T07:22:13;25.00;62.30
19908;DHT22;10116;53.112;7.356;2023-03-23T07:24:39;25.00;62.10
19908;DHT22;10116;53.112;7.356;2023-03-23T07:27:05;25.10;62.20
19908;DHT22;10116;53.112;7.356;2023-03-23T07:29:30;25.10;62.70
19908;DHT22;10116;53.112;7.356;2023-03-23T07:32:00;25.10;62.40
19908;DHT22;10116;53.112;7.356;2023-03-23T07:34:27;25.10;63.10
19908;DHT22;10116;53.112;7.356;2023-03-23T07:36:53;25.10;63.60
19908;DHT22;10116;53.112;7.356;2023-03-23T07:39:19;25.10;63.00
19908;DHT22;10116;53.112;7.356;2023-03-23T07:41:44;25.10;62.20
19908;DHT22;10116;53.112;7.356;2023-03-23T07:44:10;25.10;62.90
19908;DHT22;10116;53.112;7.356;2023-03-23T07:46:35;25.10;62.30
19908;DHT22;10116;53.112;7.356;2023-03-23T07:49:01;25.10;61.90
19908;DHT22;10116;53.112;7.356;2023-03-23T07:51:31;25.10;78.60
19908;DHT22;10116;53.112;7.356;2023-03-23T07:53:57;25.10;62.20
19908;DHT22;10116;53.112;7.356;2023-03-23T07:56:22;25.10;61.90
19908;DHT22;10116;53.112;7.356;2023-03-23T07:58:48;25.10;61.70
19908;DHT22;10116;53.112;7.356;2023-03-23T08:01:15;25.10;61.20
19908;DHT22;10116;53.112;7.356;2023-03-23T08:03:41;25.00;61.00
19908;DHT22;10116;53.112;7.356;2023-03-23T08:06:08;25.00;61.10
19908;DHT22;10116;53.112;7.356;2023-03-23T08:08:35;25.00;61.30
19908;DHT22;10116;53.112;7.356;2023-03-23T08:11:01;25.00;60.90
19908;DHT22;10116;53.112;7.356;2023-03-23T08:13:26;25.00;60.90
19908;DHT22;10116;53.112;7.356;2023-03-23T08:15:53;25.00;61.30
19908;DHT22;10116;53.112;7.356;2023-03-23T08:18:18;25.00;61.90
19908;DHT22;10116;53.112;7.356;2023-03-23T08:20:45;25.10;61.30
19908;DHT22;10116;53.112;7.356;2023-03-23T08:23:11;25.10;63.60
19908;DHT22;10116;53.112;7.356;2023-03-23T08:25:37;25.20;63.60
19908;DHT22;10116;53.112;7.356;2023-03-23T08:28:03;25.20;63.30
19908;DHT22;10116;53.112;7.356;2023-03-23T08:30:30;25.20;63.70
19908;DHT22;10116;53.112;7.356;2023-03-23T08:32:57;25.20;64.20
19908;DHT22;10116;53.112;7.356;2023-03-23T08:35:24;25.20;63.10
19908;DHT22;10116;53.112;7.356;2023-03-23T08:37:49;25.20;63.00
19908;DHT22;10116;53.112;7.356;2023-03-23T08:40:21;25.20;62.60
19908;DHT22;10116;53.112;7.356;2023-03-23T08:42:48;25.20;63.10
19908;DHT22;10116;53.112;7.356;2023-03-23T08:45:17;25.20;66.60
19908;DHT22;10116;53.112;7.356;2023-03-23T08:47:43;25.20;61.90
19908;DHT22;10116;53.112;7.356;2023-03-23T08:50:13;25.20;61.90
19908;DHT22;10116;53.112;7.356;2023-03-23T08:52:39;25.10;62.60
19908;DHT22;10116;53.112;7.356;2023-03-23T08:55:05;25.10;62.20
19908;DHT22;10116;53.112;7.356;2023-03-23T08:57:34;25.10;61.50
19908;DHT22;10116;53.112;7.356;2023-03-23T09:00:02;25.10;61.60
19908;DHT22;10116;53.112;7.356;2023-03-23T09:02:40;25.10;61.00
19908;DHT22;10116;53.112;7.356;2023-03-23T09:05:08;25.10;61.60
19908;DHT22;10116;53.112;7.356;2023-03-23T09:07:35;25.00;60.80
19908;DHT22;10116;53.112;7.356;2023-03-23T09:10:01;25.00;60.00
19908;DHT22;10116;53.112;7.356;2023-03-23T09:12:27;25.00;59.50
19908;DHT22;10116;53.112;7.356;2023-03-23T09:14:53;25.00;59.40
19908;DHT22;10116;53.112;7.356;2023-03-23T09:17:18;25.00;59.30
19908;DHT22;10116;53.112;7.356;2023-03-23T09:19:44;25.00;59.00
19908;DHT22;10116;53.112;7.356;2023-03-23T09:22:10;25.00;59.60
19908;DHT22;10116;53.112;7.356;2023-03-23T09:24:35;25.00;58.70
19908;DHT22;10116;53.112;7.356;2023-03-23T09:27:02;25.00;58.50
19908;DHT22;10116;53.112;7.356;2023-03-23T09:29:28;25.00;59.20
19908;DHT22;10116;53.112;7.356;2023-03-23T09:31:54;24.90;58.30
19908;DHT22;10116;53.112;7.356;2023-03-23T09:34:21;24.90;58.90
19908;DHT22;10116;53.112;7.356;2023-03-23T09:36:47;24.90;57.70
19908;DHT22;10116;53.112;7.356;2023-03-23T09:39:13;24.90;65.40
19908;DHT22;10116;53.112;7.356;2023-03-23T09:49:56;24.90;57.30
19908;DHT22;10116;53.112;7.356;2023-03-23T09:52:43;24.90;57.80
19908;DHT22;10116;53.112;7.356;2023-03-23T09:55:14;24.90;57.20
19908;DHT22;10116;53.112;7.356;2023-03-23T10:00:18;24.90;57.10
19908;DHT22;10116;53.112;7.356;2023-03-23T10:05:39;24.80;56.60
19908;DHT22;10116;53.112;7.356;2023-03-23T10:08:14;24.80;56.00
19908;DHT22;10116;53.112;7.356;2023-03-23T10:13:26;24.80;56.70
19908;DHT22;10116;53.112;7.356;2023-03-23T10:15:56;24.80;56.10
19908;DHT22;10116;53.112;7.356;2023-03-23T10:18:46;24.80;56.50
19908;DHT22;10116;53.112;7.356;2023-03-23T10:21:18;24.80;56.30
19908;DHT22;10116;53.112;7.356;2023-03-23T10:26:39;24.80;57.60
19908;DHT22;10116;53.112;7.356;2023-03-23T10:32:09;24.80;56.50
19908;DHT22;10116;53.112;7.356;2023-03-23T10:37:27;24.80;56.60
19908;DHT22;10116;53.112;7.356;2023-03-23T10:39:59;24.80;57.30
19908;DHT22;10116;53.112;7.356;2023-03-23T10:42:26;24.80;56.30
19908;DHT22;10116;53.112;7.356;2023-03-23T10:44:53;24.80;56.80
19908;DHT22;10116;53.112;7.356;2023-03-23T10:47:20;24.80;57.10
19908;DHT22;10116;53.112;7.356;2023-03-23T10:49:51;24.80;56.20
19908;DHT22;10116;53.112;7.356;2023-03-23T10:52:35;24.80;56.50
19908;DHT22;10116;53.112;7.356;2023-03-23T10:55:05;24.80;56.70
19908;DHT22;10116;53.112;7.356;2023-03-23T10:57:33;24.90;56.80
19908;DHT22;10116;53.112;7.356;2023-03-23T11:02:39;25.00;58.00
19908;DHT22;10116;53.112;7.356;2023-03-23T11:05:21;25.10;58.80
19908;DHT22;10116;53.112;7.356;2023-03-23T11:07:56;25.10;59.70
19908;DHT22;10116;53.112;7.356;2023-03-23T11:10:37;25.20;59.40
19908;DHT22;10116;53.112;7.356;2023-03-23T11:13:04;25.20;60.10
19908;DHT22;10116;53.112;7.356;2023-03-23T11:15:40;25.30;62.10
19908;DHT22;10116;53.112;7.356;2023-03-23T11:18:11;25.40;61.90
19908;DHT22;10116;53.112;7.356;2023-03-23T11:20:40;25.40;62.50
19908;DHT22;10116;53.112;7.356;2023-03-23T11:23:32;25.50;62.70
19908;DHT22;10116;53.112;7.356;2023-03-23T11:26:15;25.50;64.30
19908;DHT22;10116;53.112;7.356;2023-03-23T11:31:40;25.50;63.20
19908;DHT22;10116;53.112;7.356;2023-03-23T11:34:19;25.50;62.10
19908;DHT22;10116;53.112;7.356;2023-03-23T11:36:54;25.50;61.80
19908;DHT22;10116;53.112;7.356;2023-03-23T11:39:27;25.50;60.80
19908;DHT22;10116;53.112;7.356;2023-03-23T11:41:54;25.50;60.90
19908;DHT22;10116;53.112;7.356;2023-03-23T11:44:23;25.40;59.60
19908;DHT22;10116;53.112;7.356;2023-03-23T11:47:17;25.40;59.80
19908;DHT22;10116;53.112;7.356;2023-03-23T11:56:25;25.40;58.20
19908;DHT22;10116;53.112;7.356;2023-03-23T11:58:56;25.40;58.50
19908;DHT22;10116;53.112;7.356;2023-03-23T12:01:37;25.30;57.90
19908;DHT22;10116;53.112;7.356;2023-03-23T12:09:53;25.30;56.70
19908;DHT22;10116;53.112;7.356;2023-03-23T12:12:37;25.30;56.40
19908;DHT22;10116;53.112;7.356;2023-03-23T12:26:28;25.20;55.50
19908;DHT22;10116;53.112;7.356;2023-03-23T12:29:18;25.20;55.20
19908;DHT22;10116;53.112;7.356;2023-03-23T12:34:54;25.20;55.90
19908;DHT22;10116;53.112;7.356;2023-03-23T12:38:00;25.20;54.60
19908;DHT22;10116;53.112;7.356;2023-03-23T12:43:51;25.20;54.60
19908;DHT22;10116;53.112;7.356;2023-03-23T12:51:35;25.30;54.60
19908;DHT22;10116;53.112;7.356;2023-03-23T12:54:09;25.30;54.70
19908;DHT22;10116;53.112;7.356;2023-03-23T13:02:50;25.30;53.80
19908;DHT22;10116;53.112;7.356;2023-03-23T13:08:43;25.30;53.40
19908;DHT22;10116;53.112;7.356;2023-03-23T13:11:23;25.20;53.00
19908;DHT22;10116;53.112;7.356;2023-03-23T13:13:55;25.20;53.00
19908;DHT22;10116;53.112;7.356;2023-03-23T13:16:49;25.20;52.10
19908;DHT22;10116;53.112;7.356;2023-03-23T13:21:45;25.20;51.50
19908;DHT22;10116;53.112;7.356;2023-03-23T13:24:17;25.10;50.80
19908;DHT22;10116;53.112;7.356;2023-03-23T13:26:44;25.10;50.80
19908;DHT22;10116;53.112;7.356;2023-03-23T13:29:15;25.10;49.50
19908;DHT22;10116;53.112;7.356;2023-03-23T13:31:45;25.00;49.60
19908;DHT22;10116;53.112;7.356;2023-03-23T13:34:17;25.00;49.50
19908;DHT22;10116;53.112;7.356;2023-03-23T13:37:10;25.00;48.90
19908;DHT22;10116;53.112;7.356;2023-03-23T13:39:47;25.00;48.20
19908;DHT22;10116;53.112;7.356;2023-03-23T13:49:55;25.00;47.50
19908;DHT22;10116;53.112;7.356;2023-03-23T13:52:49;25.00;48.30
19908;DHT22;10116;53.112;7.356;2023-03-23T13:57:57;24.90;47.50
19908;DHT22;10116;53.112;7.356;2023-03-23T14:00:35;24.90;47.50
19908;DHT22;10116;53.112;7.356;2023-03-23T14:03:10;24.90;59.10
19908;DHT22;10116;53.112;7.356;2023-03-23T14:13:04;24.90;47.30
19908;DHT22;10116;53.112;7.356;2023-03-23T14:15:40;24.90;47.10
19908;DHT22;10116;53.112;7.356;2023-03-23T14:18:11;25.00;49.00
19908;DHT22;10116;53.112;7.356;2023-03-23T14:20:38;25.10;48.70
19908;DHT22;10116;53.112;7.356;2023-03-23T14:23:05;25.20;49.50
19908;DHT22;10116;53.112;7.356;2023-03-23T14:25:31;25.20;50.10
19908;DHT22;10116;53.112;7.356;2023-03-23T14:27:59;25.20;50.30
19908;DHT22;10116;53.112;7.356;2023-03-23T14:30:27;25.30;50.40
19908;DHT22;10116;53.112;7.356;2023-03-23T14:33:06;25.30;50.40
19908;DHT22;10116;53.112;7.356;2023-03-23T14:35:37;25.30;50.40
19908;DHT22;10116;53.112;7.356;2023-03-23T14:38:04;25.40;50.90
19908;DHT22;10116;53.112;7.356;2023-03-23T14:40:31;25.40;50.40
19908;DHT22;10116;53.112;7.356;2023-03-23T14:42:57;25.30;50.50
19908;DHT22;10116;53.112;7.356;2023-03-23T14:45:25;25.40;50.30
19908;DHT22;10116;53.112;7.356;2023-03-23T14:47:59;25.40;49.80
19908;DHT22;10116;53.112;7.356;2023-03-23T14:50:36;25.30;62.20
19908;DHT22;10116;53.112;7.356;2023-03-23T14:53:30;25.30;49.70
19908;DHT22;10116;53.112;7.356;2023-03-23T14:56:00;25.20;48.00
19908;DHT22;10116;53.112;7.356;2023-03-23T14:58:28;25.20;47.40
19908;DHT22;10116;53.112;7.356;2023-03-23T15:01:18;25.10;47.50
19908;DHT22;10116;53.112;7.356;2023-03-23T15:03:53;25.10;47.80
19908;DHT22;10116;53.112;7.356;2023-03-23T15:06:21;25.10;47.30
19908;DHT22;10116;53.112;7.356;2023-03-23T15:08:48;25.10;47.30
19908;DHT22;10116;53.112;7.356;2023-03-23T15:11:28;25.20;47.70
19908;DHT22;10116;53.112;7.356;2023-03-23T15:13:57;25.20;47.40
19908;DHT22;10116;53.112;7.356;2023-03-23T15:16:30;25.20;48.00
19908;DHT22;10116;53.112;7.356;2023-03-23T15:21:34;25.20;47.50
19908;DHT22;10116;53.112;7.356;2023-03-23T15:24:03;25.20;48.70
19908;DHT22;10116;53.112;7.356;2023-03-23T15:26:44;25.20;49.10
19908;DHT22;10116;53.112;7.356;2023-03-23T15:29:18;25.20;48.70
19908;DHT22;10116;53.112;7.356;2023-03-23T15:31:49;25.20;47.70
19908;DHT22;10116;53.112;7.356;2023-03-23T15:36:52;25.20;53.60
19908;DHT22;10116;53.112;7.356;2023-03-23T15:39:19;25.20;47.40
19908;DHT22;10116;53.112;7.356;2023-03-23T15:41:48;25.20;47.90
19908;DHT22;10116;53.112;7.356;2023-03-23T15:44:32;25.20;47.50
19908;DHT22;10116;53.112;7.356;2023-03-23T15:47:12;25.20;47.40
19908;DHT22;10116;53.112;7.356;2023-03-23T15:49:38;25.20;37.80
19908;DHT22;10116;53.112;7.356;2023-03-23T15:52:03;25.20;47.00
19908;DHT22;10116;53.112;7.356;2023-03-23T15:54:30;25.20;47.50
19908;DHT22;10116;53.112;7.356;2023-03-23T15:56:57;25.20;48.20
19908;DHT22;10116;53.112;7.356;2023-03-23T15:59:23;25.20;46.90
19908;DHT22;10116;53.112;7.356;2023-03-23T16:01:48;25.20;47.60
19908;DHT22;10116;53.112;7.356;2023-03-23T16:04:16;25.20;47.20
19908;DHT22;10116;53.112;7.356;2023-03-23T16:06:43;25.20;47.20
19908;DHT22;10116;53.112;7.356;2023-03-23T16:09:18;25.20;48.40
19908;DHT22;10116;53.112;7.356;2023-03-23T16:11:44;25.30;47.60
19908;DHT22;10116;53.112;7.356;2023-03-23T16:14:10;25.30;49.00
19908;DHT22;10116;53.112;7.356;2023-03-23T16:16:40;25.30;48.50
19908;DHT22;10116;53.112;7.356;2023-03-23T16:19:12;25.30;48.50
19908;DHT22;10116;53.112;7.356;2023-03-23T16:21:39;25.30;48.20
19908;DHT22;10116;53.112;7.356;2023-03-23T16:24:05;25.40;48.70
19908;DHT22;10116;53.112;7.356;2023-03-23T16:26:30;25.40;49.00
19908;DHT22;10116;53.112;7.356;2023-03-23T16:28:56;25.40;48.80
19908;DHT22;10116;53.112;7.356;2023-03-23T16:31:22;25.40;49.70
19908;DHT22;10116;53.112;7.356;2023-03-23T16:33:47;25.40;49.10
19908;DHT22;10116;53.112;7.356;2023-03-23T16:36:13;25.40;49.20
19908;DHT22;10116;53.112;7.356;2023-03-23T16:38:40;25.40;49.00
19908;DHT22;10116;53.112;7.356;2023-03-23T16:41:06;25.40;48.80
19908;DHT22;10116;53.112;7.356;2023-03-23T16:43:33;25.40;49.90
19908;DHT22;10116;53.112;7.356;2023-03-23T16:45:58;25.40;48.50
19908;DHT22;10116;53.112;7.356;2023-03-23T16:48:24;25.40;48.70
19908;DHT22;10116;53.112;7.356;2023-03-23T16:50:51;25.40;48.50
19908;DHT22;10116;53.112;7.356;2023-03-23T16:53:19;25.40;48.70
19908;DHT22;10116;53.112;7.356;2023-03-23T16:55:45;25.30;48.60
19908;DHT22;10116;53.112;7.356;2023-03-23T16:58:13;25.30;47.60
19908;DHT22;10116;53.112;7.356;2023-03-23T17:00:39;25.30;47.90
19908;DHT22;10116;53.112;7.356;2023-03-23T17:03:05;25.30;47.70
19908;DHT22;10116;53.112;7.356;2023-03-23T17:05:31;25.30;47.80
19908;DHT22;10116;53.112;7.356;2023-03-23T17:07:56;25.40;48.40
19908;DHT22;10116;53.112;7.356;2023-03-23T17:10:24;25.40;49.10
19908;DHT22;10116;53.112;7.356;2023-03-23T17:12:51;25.50;49.30
19908;DHT22;10116;53.112;7.356;2023-03-23T17:15:17;25.50;49.90
19908;DHT22;10116;53.112;7.356;2023-03-23T17:17:43;25.60;50.20
19908;DHT22;10116;53.112;7.356;2023-03-23T17:20:09;25.60;50.60
19908;DHT22;10116;53.112;7.356;2023-03-23T17:22:36;25.60;50.40
19908;DHT22;10116;53.112;7.356;2023-03-23T17:25:02;25.60;51.20
19908;DHT22;10116;53.112;7.356;2023-03-23T17:27:28;25.60;51.00
19908;DHT22;10116;53.112;7.356;2023-03-23T17:29:54;25.70;51.50
19908;DHT22;10116;53.112;7.356;2023-03-23T17:32:20;25.70;51.10
19908;DHT22;10116;53.112;7.356;2023-03-23T17:34:48;25.70;51.10
19908;DHT22;10116;53.112;7.356;2023-03-23T17:37:13;25.70;52.20
19908;DHT22;10116;53.112;7.356;2023-03-23T17:39:39;25.70;51.50
19908;DHT22;10116;53.112;7.356;2023-03-23T17:42:05;25.70;52.00
19908;DHT22;10116;53.112;7.356;2023-03-23T17:44:31;25.70;52.80
19908;DHT22;10116;53.112;7.356;2023-03-23T17:46:57;25.70;51.70